Time;durP1;ratioP1;P1;durP2;ratioP2;P2;SDS_P1;SDS_P2;PMS_P1;PMS_P2;Temp;Humidity;BMP_temperature;BMP_pressure;BME280_temperature;BME280_humidity;BME280_pressure;Samples;Min_cycle;Max_cycle;Signal;HPM_P1;HPM_P2
2019/08/05 00:00:34;;;;;;;6.35;5.8;;;;;;;14.43;79.52344;95161.05;;;;
2019/08/05 00:02:06;;;;;;;6.35;5.8;;;;;;;14.43;79.52344;95161.05;;;;
2019/08/05 00:03:07;;;;;;;6.35;5.8;;;;;;;14.43;79.52344;95161.05;;;;
2019/08/05 00:04:08;;;;;;;6.35;5.8;;;;;;;14.43;79.52344;95161.05;;;;
2019/08/05 00:05:09;;;;;;;6.35;5.8;;;;;;;14.43;79.52344;95161.05;;;;
2019/08/05 00:06:11;;;;;;;6.35;5.8;;;;;;;14.43;79.52344;95161.05;;;;
2019/08/05 00:07:12;;;;;;;6.35;5.8;;;;;;;14.43;79.52344;95161.05;;;;
2019/08/05 00:08:14;;;;;;;6.85;6.250001;;;;;;;14.41;79.87891;95164.45;;;;
2019/08/05 00:09:15;;;;;;;6.85;6.250001;;;;;;;14.41;79.87891;95164.45;;;;
2019/08/05 00:10:16;;;;;;;6.85;6.250001;;;;;;;14.41;79.87891;95164.45;;;;
2019/08/05 00:11:29;;;;;;;6.85;6.250001;;;;;;;14.41;79.87891;95164.45;;;;
2019/08/05 00:12:30;;;;;;;6.85;6.250001;;;;;;;14.41;79.87891;95164.45;;;;
2019/08/05 00:13:32;;;;;;;6.85;6.250001;;;;;;;14.41;79.87891;95164.45;;;;
2019/08/05 00:14:33;;;;;;;6.85;6.250001;;;;;;;14.41;79.87891;95164.45;;;;
2019/08/05 00:15:34;;;;;;;6.85;6.250001;;;;;;;14.41;79.87891;95164.45;;;;
2019/08/05 00:16:35;;;;;;;6.85;6.250001;;;;;;;14.41;79.87891;95164.45;;;;
2019/08/05 00:17:36;;;;;;;6.85;6.250001;;;;;;;14.41;79.87891;95164.45;;;;
2019/08/05 00:18:37;;;;;;;6.85;6.250001;;;;;;;14.41;79.87891;95164.45;;;;
2019/08/05 00:19:39;;;;;;;7.349999;6.35;;;;;;;14.27;80.44434;95157.44;;;;
2019/08/05 00:20:40;;;;;;;7.349999;6.35;;;;;;;14.27;80.44434;95157.44;;;;
2019/08/05 00:21:41;;;;;;;7.349999;6.35;;;;;;;14.27;80.44434;95157.44;;;;
2019/08/05 00:22:42;;;;;;;7.349999;6.35;;;;;;;14.27;80.44434;95157.44;;;;
2019/08/05 00:23:43;;;;;;;7.349999;6.35;;;;;;;14.27;80.44434;95157.44;;;;
2019/08/05 00:24:44;;;;;;;7.349999;6.35;;;;;;;14.27;80.44434;95157.44;;;;
2019/08/05 00:25:45;;;;;;;7.349999;6.35;;;;;;;14.27;80.44434;95157.44;;;;
2019/08/05 00:26:47;;;;;;;7.349999;6.35;;;;;;;14.27;80.44434;95157.44;;;;
2019/08/05 00:27:48;;;;;;;7.349999;6.35;;;;;;;14.27;80.44434;95157.44;;;;
2019/08/05 00:28:49;;;;;;;7.349999;6.35;;;;;;;14.27;80.44434;95157.44;;;;
2019/08/05 00:29:50;;;;;;;7.3;6.600001;;;;;;;14.22;81.18945;95161.98;;;;
2019/08/05 00:30:51;;;;;;;7.3;6.600001;;;;;;;14.22;81.18945;95161.98;;;;
2019/08/05 00:31:52;;;;;;;7.3;6.600001;;;;;;;14.22;81.18945;95161.98;;;;
2019/08/05 00:32:54;;;;;;;7.3;6.600001;;;;;;;14.22;81.18945;95161.98;;;;
2019/08/05 00:33:55;;;;;;;7.3;6.600001;;;;;;;14.22;81.18945;95161.98;;;;
2019/08/05 00:34:56;;;;;;;7.3;6.600001;;;;;;;14.22;81.18945;95161.98;;;;
2019/08/05 00:35:57;;;;;;;7.3;6.600001;;;;;;;14.22;81.18945;95161.98;;;;
2019/08/05 00:36:58;;;;;;;7.3;6.600001;;;;;;;14.22;81.18945;95161.98;;;;
2019/08/05 00:37:59;;;;;;;7.3;6.600001;;;;;;;14.22;81.18945;95161.98;;;;
2019/08/05 00:39:12;;;;;;;7.3;6.600001;;;;;;;14.22;81.18945;95161.98;;;;
2019/08/05 00:40:29;;;;;;;7.2;6.5;;;;;;;14.24;81.91406;95152.92;;;;
2019/08/05 00:41:31;;;;;;;7.2;6.5;;;;;;;14.24;81.91406;95152.92;;;;
2019/08/05 00:42:32;;;;;;;7.2;6.5;;;;;;;14.24;81.91406;95152.92;;;;
2019/08/05 00:43:33;;;;;;;7.2;6.5;;;;;;;14.24;81.91406;95152.92;;;;
2019/08/05 00:44:34;;;;;;;7.2;6.5;;;;;;;14.24;81.91406;95152.92;;;;
2019/08/05 00:45:35;;;;;;;7.2;6.5;;;;;;;14.24;81.91406;95152.92;;;;
2019/08/05 00:46:37;;;;;;;7.2;6.5;;;;;;;14.24;81.91406;95152.92;;;;
2019/08/05 00:47:38;;;;;;;7.2;6.5;;;;;;;14.24;81.91406;95152.92;;;;
2019/08/05 00:48:39;;;;;;;7.2;6.5;;;;;;;14.24;81.91406;95152.92;;;;
2019/08/05 00:49:40;;;;;;;7.2;6.5;;;;;;;14.24;81.91406;95152.92;;;;
2019/08/05 00:50:41;;;;;;;6.05;5.55;;;;;;;14.44;82.31934;95155.8;;;;
2019/08/05 00:51:42;;;;;;;6.05;5.55;;;;;;;14.44;82.31934;95155.8;;;;
2019/08/05 00:52:44;;;;;;;6.05;5.55;;;;;;;14.44;82.31934;95155.8;;;;
2019/08/05 00:53:45;;;;;;;6.05;5.55;;;;;;;14.44;82.31934;95155.8;;;;
2019/08/05 00:54:46;;;;;;;6.05;5.55;;;;;;;14.44;82.31934;95155.8;;;;
2019/08/05 00:55:47;;;;;;;6.05;5.55;;;;;;;14.44;82.31934;95155.8;;;;
2019/08/05 00:56:48;;;;;;;6.05;5.55;;;;;;;14.44;82.31934;95155.8;;;;
2019/08/05 00:57:49;;;;;;;6.05;5.55;;;;;;;14.44;82.31934;95155.8;;;;
2019/08/05 00:58:51;;;;;;;6.05;5.55;;;;;;;14.44;82.31934;95155.8;;;;
2019/08/05 00:59:52;;;;;;;6.05;5.55;;;;;;;14.44;82.31934;95155.8;;;;
2019/08/05 01:00:53;;;;;;;6.05;5.55;;;;;;;14.44;82.31934;95155.8;;;;
2019/08/05 01:01:54;;;;;;;6.55;5.95;;;;;;;14.54;82.29395;95153.25;;;;
2019/08/05 01:02:55;;;;;;;6.55;5.95;;;;;;;14.54;82.29395;95153.25;;;;
2019/08/05 01:03:56;;;;;;;6.55;5.95;;;;;;;14.54;82.29395;95153.25;;;;
2019/08/05 01:04:57;;;;;;;6.55;5.95;;;;;;;14.54;82.29395;95153.25;;;;
2019/08/05 01:05:59;;;;;;;6.55;5.95;;;;;;;14.54;82.29395;95153.25;;;;
2019/08/05 01:07:00;;;;;;;6.55;5.95;;;;;;;14.54;82.29395;95153.25;;;;
2019/08/05 01:08:01;;;;;;;6.55;5.95;;;;;;;14.54;82.29395;95153.25;;;;
2019/08/05 01:09:04;;;;;;;6.55;5.95;;;;;;;14.54;82.29395;95153.25;;;;
2019/08/05 01:10:07;;;;;;;6.55;5.95;;;;;;;14.54;82.29395;95153.25;;;;
2019/08/05 01:11:09;;;;;;;6.55;5.95;;;;;;;14.54;82.29395;95153.25;;;;
2019/08/05 01:12:10;;;;;;;6.849999;6.149999;;;;;;;14.66;82.70215;95148.44;;;;
2019/08/05 01:13:11;;;;;;;6.849999;6.149999;;;;;;;14.66;82.70215;95148.44;;;;
2019/08/05 01:14:13;;;;;;;6.849999;6.149999;;;;;;;14.66;82.70215;95148.44;;;;
2019/08/05 01:15:14;;;;;;;6.849999;6.149999;;;;;;;14.66;82.70215;95148.44;;;;
2019/08/05 01:16:18;;;;;;;6.849999;6.149999;;;;;;;14.66;82.70215;95148.44;;;;
2019/08/05 01:17:19;;;;;;;6.849999;6.149999;;;;;;;14.66;82.70215;95148.44;;;;
2019/08/05 01:18:20;;;;;;;6.849999;6.149999;;;;;;;14.66;82.70215;95148.44;;;;
2019/08/05 01:19:22;;;;;;;6.849999;6.149999;;;;;;;14.66;82.70215;95148.44;;;;
2019/08/05 01:20:23;;;;;;;6.849999;6.149999;;;;;;;14.66;82.70215;95148.44;;;;
2019/08/05 01:22:09;;;;;;;6.849999;6.149999;;;;;;;14.66;82.70215;95148.44;;;;
2019/08/05 01:23:11;;;;;;;6.75;6.149999;;;;;;;14.64;82.5498;95144.6;;;;
2019/08/05 01:24:12;;;;;;;6.75;6.149999;;;;;;;14.64;82.5498;95144.6;;;;
2019/08/05 01:25:13;;;;;;;6.75;6.149999;;;;;;;14.64;82.5498;95144.6;;;;
2019/08/05 01:26:15;;;;;;;6.75;6.149999;;;;;;;14.64;82.5498;95144.6;;;;
2019/08/05 01:27:16;;;;;;;6.75;6.149999;;;;;;;14.64;82.5498;95144.6;;;;
2019/08/05 01:28:17;;;;;;;6.75;6.149999;;;;;;;14.64;82.5498;95144.6;;;;
2019/08/05 01:29:18;;;;;;;6.75;6.149999;;;;;;;14.64;82.5498;95144.6;;;;
2019/08/05 01:30:19;;;;;;;6.75;6.149999;;;;;;;14.64;82.5498;95144.6;;;;
2019/08/05 01:31:21;;;;;;;6.75;6.149999;;;;;;;14.64;82.5498;95144.6;;;;
2019/08/05 01:32:22;;;;;;;6.75;6.149999;;;;;;;14.64;82.5498;95144.6;;;;
2019/08/05 01:33:23;;;;;;;7.8;6.5;;;;;;;14.6;82.88574;95137.25;;;;
2019/08/05 01:34:24;;;;;;;7.8;6.5;;;;;;;14.6;82.88574;95137.25;;;;
2019/08/05 01:35:25;;;;;;;7.8;6.5;;;;;;;14.6;82.88574;95137.25;;;;
2019/08/05 01:36:27;;;;;;;7.8;6.5;;;;;;;14.6;82.88574;95137.25;;;;
2019/08/05 01:37:28;;;;;;;7.8;6.5;;;;;;;14.6;82.88574;95137.25;;;;
2019/08/05 01:38:29;;;;;;;7.8;6.5;;;;;;;14.6;82.88574;95137.25;;;;
2019/08/05 01:39:30;;;;;;;7.8;6.5;;;;;;;14.6;82.88574;95137.25;;;;
2019/08/05 01:40:31;;;;;;;7.8;6.5;;;;;;;14.6;82.88574;95137.25;;;;
2019/08/05 01:41:34;;;;;;;7.8;6.5;;;;;;;14.6;82.88574;95137.25;;;;
2019/08/05 01:42:49;;;;;;;7.8;6.5;;;;;;;14.6;82.88574;95137.25;;;;
2019/08/05 01:43:55;;;;;;;6.6;6;;;;;;;14.45;83.23438;95138.53;;;;
2019/08/05 01:45:18;;;;;;;6.6;6;;;;;;;14.45;83.23438;95138.53;;;;
2019/08/05 01:46:28;;;;;;;6.6;6;;;;;;;14.45;83.23438;95138.53;;;;
2019/08/05 01:47:35;;;;;;;6.6;6;;;;;;;14.45;83.23438;95138.53;;;;
2019/08/05 01:48:37;;;;;;;6.6;6;;;;;;;14.45;83.23438;95138.53;;;;
2019/08/05 01:49:38;;;;;;;6.6;6;;;;;;;14.45;83.23438;95138.53;;;;
2019/08/05 01:50:39;;;;;;;6.6;6;;;;;;;14.45;83.23438;95138.53;;;;
2019/08/05 01:51:40;;;;;;;6.6;6;;;;;;;14.45;83.23438;95138.53;;;;
2019/08/05 01:52:42;;;;;;;6.6;6;;;;;;;14.45;83.23438;95138.53;;;;
2019/08/05 01:53:43;;;;;;;6.6;6;;;;;;;14.45;83.23438;95138.53;;;;
2019/08/05 01:54:44;;;;;;;6.900001;6.299999;;;;;;;14.45;83.84863;95129.85;;;;
2019/08/05 01:55:45;;;;;;;6.900001;6.299999;;;;;;;14.45;83.84863;95129.85;;;;
2019/08/05 01:56:46;;;;;;;6.900001;6.299999;;;;;;;14.45;83.84863;95129.85;;;;
2019/08/05 01:57:47;;;;;;;6.900001;6.299999;;;;;;;14.45;83.84863;95129.85;;;;
2019/08/05 01:58:49;;;;;;;6.900001;6.299999;;;;;;;14.45;83.84863;95129.85;;;;
2019/08/05 01:59:50;;;;;;;6.900001;6.299999;;;;;;;14.45;83.84863;95129.85;;;;
2019/08/05 02:00:51;;;;;;;6.900001;6.299999;;;;;;;14.45;83.84863;95129.85;;;;
2019/08/05 02:01:55;;;;;;;6.900001;6.299999;;;;;;;14.45;83.84863;95129.85;;;;
2019/08/05 02:02:56;;;;;;;6.900001;6.299999;;;;;;;14.45;83.84863;95129.85;;;;
2019/08/05 02:03:57;;;;;;;6.900001;6.299999;;;;;;;14.45;83.84863;95129.85;;;;
2019/08/05 02:04:58;;;;;;;7.05;6.450001;;;;;;;14.46;84.05469;95129.72;;;;
2019/08/05 02:05:59;;;;;;;7.05;6.450001;;;;;;;14.46;84.05469;95129.72;;;;
2019/08/05 02:07:02;;;;;;;7.05;6.450001;;;;;;;14.46;84.05469;95129.72;;;;
2019/08/05 02:08:04;;;;;;;7.05;6.450001;;;;;;;14.46;84.05469;95129.72;;;;
2019/08/05 02:09:05;;;;;;;7.05;6.450001;;;;;;;14.46;84.05469;95129.72;;;;
2019/08/05 02:10:07;;;;;;;7.05;6.450001;;;;;;;14.46;84.05469;95129.72;;;;
2019/08/05 02:11:09;;;;;;;7.05;6.450001;;;;;;;14.46;84.05469;95129.72;;;;
2019/08/05 02:12:10;;;;;;;7.05;6.450001;;;;;;;14.46;84.05469;95129.72;;;;
2019/08/05 02:13:12;;;;;;;7.05;6.450001;;;;;;;14.46;84.05469;95129.72;;;;
2019/08/05 02:14:13;;;;;;;7.05;6.450001;;;;;;;14.46;84.05469;95129.72;;;;
2019/08/05 02:15:14;;;;;;;7.05;6.450001;;;;;;;14.46;84.05469;95129.72;;;;
2019/08/05 02:16:34;;;;;;;6.800001;6.149999;;;;;;;14.64;84.50879;95120.7;;;;
2019/08/05 02:17:35;;;;;;;6.800001;6.149999;;;;;;;14.64;84.50879;95120.7;;;;
2019/08/05 02:18:36;;;;;;;6.800001;6.149999;;;;;;;14.64;84.50879;95120.7;;;;
2019/08/05 02:19:37;;;;;;;6.800001;6.149999;;;;;;;14.64;84.50879;95120.7;;;;
2019/08/05 02:20:38;;;;;;;6.800001;6.149999;;;;;;;14.64;84.50879;95120.7;;;;
2019/08/05 02:21:42;;;;;;;6.800001;6.149999;;;;;;;14.64;84.50879;95120.7;;;;
2019/08/05 02:22:44;;;;;;;6.800001;6.149999;;;;;;;14.64;84.50879;95120.7;;;;
2019/08/05 02:23:45;;;;;;;6.800001;6.149999;;;;;;;14.64;84.50879;95120.7;;;;
2019/08/05 02:24:46;;;;;;;6.800001;6.149999;;;;;;;14.64;84.50879;95120.7;;;;
2019/08/05 02:25:47;;;;;;;6.800001;6.149999;;;;;;;14.64;84.50879;95120.7;;;;
2019/08/05 02:26:49;;;;;;;7.45;6.3;;;;;;;14.79;84.36523;95135.32;;;;
2019/08/05 02:27:50;;;;;;;7.45;6.3;;;;;;;14.79;84.36523;95135.32;;;;
2019/08/05 02:28:51;;;;;;;7.45;6.3;;;;;;;14.79;84.36523;95135.32;;;;
2019/08/05 02:29:53;;;;;;;7.45;6.3;;;;;;;14.79;84.36523;95135.32;;;;
2019/08/05 02:30:54;;;;;;;7.45;6.3;;;;;;;14.79;84.36523;95135.32;;;;
2019/08/05 02:31:55;;;;;;;7.45;6.3;;;;;;;14.79;84.36523;95135.32;;;;
2019/08/05 02:32:56;;;;;;;7.45;6.3;;;;;;;14.79;84.36523;95135.32;;;;
2019/08/05 02:33:58;;;;;;;7.45;6.3;;;;;;;14.79;84.36523;95135.32;;;;
2019/08/05 02:34:59;;;;;;;7.45;6.3;;;;;;;14.79;84.36523;95135.32;;;;
2019/08/05 02:36:01;;;;;;;7.45;6.3;;;;;;;14.79;84.36523;95135.32;;;;
2019/08/05 02:37:04;;;;;;;6.85;6.149999;;;;;;;14.99;84.22168;95118.11;;;;
2019/08/05 02:38:06;;;;;;;6.85;6.149999;;;;;;;14.99;84.22168;95118.11;;;;
2019/08/05 02:39:07;;;;;;;6.85;6.149999;;;;;;;14.99;84.22168;95118.11;;;;
2019/08/05 02:40:09;;;;;;;6.85;6.149999;;;;;;;14.99;84.22168;95118.11;;;;
2019/08/05 02:41:10;;;;;;;6.85;6.149999;;;;;;;14.99;84.22168;95118.11;;;;
2019/08/05 02:42:14;;;;;;;6.85;6.149999;;;;;;;14.99;84.22168;95118.11;;;;
2019/08/05 02:43:15;;;;;;;6.85;6.149999;;;;;;;14.99;84.22168;95118.11;;;;
2019/08/05 02:44:17;;;;;;;6.85;6.149999;;;;;;;14.99;84.22168;95118.11;;;;
2019/08/05 02:45:19;;;;;;;6.85;6.149999;;;;;;;14.99;84.22168;95118.11;;;;
2019/08/05 02:46:21;;;;;;;6.85;6.149999;;;;;;;14.99;84.22168;95118.11;;;;
2019/08/05 02:47:27;;;;;;;7.050001;6.45;;;;;;;15.06;84.21191;95104.55;;;;
2019/08/05 02:48:28;;;;;;;7.050001;6.45;;;;;;;15.06;84.21191;95104.55;;;;
2019/08/05 02:49:30;;;;;;;7.050001;6.45;;;;;;;15.06;84.21191;95104.55;;;;
2019/08/05 02:50:31;;;;;;;7.050001;6.45;;;;;;;15.06;84.21191;95104.55;;;;
2019/08/05 02:51:34;;;;;;;7.050001;6.45;;;;;;;15.06;84.21191;95104.55;;;;
2019/08/05 02:52:35;;;;;;;7.050001;6.45;;;;;;;15.06;84.21191;95104.55;;;;
2019/08/05 02:53:36;;;;;;;7.050001;6.45;;;;;;;15.06;84.21191;95104.55;;;;
2019/08/05 02:54:38;;;;;;;7.050001;6.45;;;;;;;15.06;84.21191;95104.55;;;;
2019/08/05 02:55:39;;;;;;;7.050001;6.45;;;;;;;15.06;84.21191;95104.55;;;;
2019/08/05 02:56:50;;;;;;;7.050001;6.45;;;;;;;15.06;84.21191;95104.55;;;;
2019/08/05 02:57:53;;;;;;;7.5;6.35;;;;;;;15.2;84.30371;95101.58;;;;
2019/08/05 02:59:03;;;;;;;7.5;6.35;;;;;;;15.2;84.30371;95101.58;;;;
2019/08/05 03:00:25;;;;;;;7.5;6.35;;;;;;;15.2;84.30371;95101.58;;;;
2019/08/05 03:01:54;;;;;;;7.5;6.35;;;;;;;15.2;84.30371;95101.58;;;;
2019/08/05 03:02:55;;;;;;;7.5;6.35;;;;;;;15.2;84.30371;95101.58;;;;
2019/08/05 03:03:56;;;;;;;7.5;6.35;;;;;;;15.2;84.30371;95101.58;;;;
2019/08/05 03:04:58;;;;;;;7.5;6.35;;;;;;;15.2;84.30371;95101.58;;;;
2019/08/05 03:05:59;;;;;;;7.5;6.35;;;;;;;15.2;84.30371;95101.58;;;;
2019/08/05 03:07:00;;;;;;;7.5;6.35;;;;;;;15.2;84.30371;95101.58;;;;
2019/08/05 03:08:01;;;;;;;7.5;6.35;;;;;;;15.2;84.30371;95101.58;;;;
2019/08/05 03:09:03;;;;;;;6.35;5.749999;;;;;;;15.36;84.46191;95100.67;;;;
2019/08/05 03:10:07;;;;;;;6.35;5.749999;;;;;;;15.36;84.46191;95100.67;;;;
2019/08/05 03:11:08;;;;;;;6.35;5.749999;;;;;;;15.36;84.46191;95100.67;;;;
2019/08/05 03:12:10;;;;;;;6.35;5.749999;;;;;;;15.36;84.46191;95100.67;;;;
2019/08/05 03:13:11;;;;;;;6.35;5.749999;;;;;;;15.36;84.46191;95100.67;;;;
2019/08/05 03:14:13;;;;;;;6.35;5.749999;;;;;;;15.36;84.46191;95100.67;;;;
2019/08/05 03:15:16;;;;;;;6.35;5.749999;;;;;;;15.36;84.46191;95100.67;;;;
2019/08/05 03:16:18;;;;;;;6.35;5.749999;;;;;;;15.36;84.46191;95100.67;;;;
2019/08/05 03:17:19;;;;;;;6.35;5.749999;;;;;;;15.36;84.46191;95100.67;;;;
2019/08/05 03:18:20;;;;;;;6.35;5.749999;;;;;;;15.36;84.46191;95100.67;;;;
2019/08/05 03:19:21;;;;;;;6.149999;5.55;;;;;;;15.56;84.59863;95110.27;;;;
2019/08/05 03:20:22;;;;;;;6.149999;5.55;;;;;;;15.56;84.59863;95110.27;;;;
2019/08/05 03:21:24;;;;;;;6.149999;5.55;;;;;;;15.56;84.59863;95110.27;;;;
2019/08/05 03:22:25;;;;;;;6.149999;5.55;;;;;;;15.56;84.59863;95110.27;;;;
2019/08/05 03:23:26;;;;;;;6.149999;5.55;;;;;;;15.56;84.59863;95110.27;;;;
2019/08/05 03:24:27;;;;;;;6.149999;5.55;;;;;;;15.56;84.59863;95110.27;;;;
2019/08/05 03:25:28;;;;;;;6.149999;5.55;;;;;;;15.56;84.59863;95110.27;;;;
2019/08/05 03:26:29;;;;;;;6.149999;5.55;;;;;;;15.56;84.59863;95110.27;;;;
2019/08/05 03:27:31;;;;;;;6.149999;5.55;;;;;;;15.56;84.59863;95110.27;;;;
2019/08/05 03:28:32;;;;;;;6.149999;5.55;;;;;;;15.56;84.59863;95110.27;;;;
2019/08/05 03:29:33;;;;;;;6.149999;5.55;;;;;;;15.62;84.48047;95114.6;;;;
2019/08/05 03:30:34;;;;;;;6.149999;5.55;;;;;;;15.62;84.48047;95114.6;;;;
2019/08/05 03:31:35;;;;;;;6.149999;5.55;;;;;;;15.62;84.48047;95114.6;;;;
2019/08/05 03:32:37;;;;;;;6.149999;5.55;;;;;;;15.62;84.48047;95114.6;;;;
2019/08/05 03:33:38;;;;;;;6.149999;5.55;;;;;;;15.62;84.48047;95114.6;;;;
2019/08/05 03:34:39;;;;;;;6.149999;5.55;;;;;;;15.62;84.48047;95114.6;;;;
2019/08/05 03:35:40;;;;;;;6.149999;5.55;;;;;;;15.62;84.48047;95114.6;;;;
2019/08/05 03:36:42;;;;;;;6.149999;5.55;;;;;;;15.62;84.48047;95114.6;;;;
2019/08/05 03:37:43;;;;;;;6.149999;5.55;;;;;;;15.62;84.48047;95114.6;;;;
2019/08/05 03:38:44;;;;;;;6.149999;5.55;;;;;;;15.62;84.48047;95114.6;;;;
2019/08/05 03:39:45;;;;;;;6.149999;5.55;;;;;;;15.62;84.48047;95114.6;;;;
2019/08/05 03:40:46;;;;;;;6.349999;5.749999;;;;;;;15.59;84.35742;95111.89;;;;
2019/08/05 03:41:47;;;;;;;6.349999;5.749999;;;;;;;15.59;84.35742;95111.89;;;;
2019/08/05 03:42:48;;;;;;;6.349999;5.749999;;;;;;;15.59;84.35742;95111.89;;;;
2019/08/05 03:43:50;;;;;;;6.349999;5.749999;;;;;;;15.59;84.35742;95111.89;;;;
2019/08/05 03:44:51;;;;;;;6.349999;5.749999;;;;;;;15.59;84.35742;95111.89;;;;
2019/08/05 03:45:52;;;;;;;6.349999;5.749999;;;;;;;15.59;84.35742;95111.89;;;;
2019/08/05 03:46:53;;;;;;;6.349999;5.749999;;;;;;;15.59;84.35742;95111.89;;;;
2019/08/05 03:47:55;;;;;;;6.349999;5.749999;;;;;;;15.59;84.35742;95111.89;;;;
2019/08/05 03:48:56;;;;;;;6.349999;5.749999;;;;;;;15.59;84.35742;95111.89;;;;
2019/08/05 03:49:57;;;;;;;6.349999;5.749999;;;;;;;15.59;84.35742;95111.89;;;;
2019/08/05 03:50:58;;;;;;;6.749999;6.15;;;;;;;15.5;84.44629;95119.09;;;;
2019/08/05 03:51:59;;;;;;;6.749999;6.15;;;;;;;15.5;84.44629;95119.09;;;;
2019/08/05 03:53:00;;;;;;;6.749999;6.15;;;;;;;15.5;84.44629;95119.09;;;;
2019/08/05 03:54:01;;;;;;;6.749999;6.15;;;;;;;15.5;84.44629;95119.09;;;;
2019/08/05 03:55:03;;;;;;;6.749999;6.15;;;;;;;15.5;84.44629;95119.09;;;;
2019/08/05 03:56:05;;;;;;;6.749999;6.15;;;;;;;15.5;84.44629;95119.09;;;;
2019/08/05 03:57:06;;;;;;;6.749999;6.15;;;;;;;15.5;84.44629;95119.09;;;;
2019/08/05 03:58:10;;;;;;;6.749999;6.15;;;;;;;15.5;84.44629;95119.09;;;;
2019/08/05 03:59:12;;;;;;;6.749999;6.15;;;;;;;15.5;84.44629;95119.09;;;;
2019/08/05 04:00:14;;;;;;;6.749999;6.15;;;;;;;15.5;84.44629;95119.09;;;;
2019/08/05 04:01:15;;;;;;;6.749999;6.15;;;;;;;15.5;84.44629;95119.09;;;;
2019/08/05 04:02:16;;;;;;;6.95;6.250001;;;;;;;15.52;84.5791;95115.97;;;;
2019/08/05 04:03:18;;;;;;;6.95;6.250001;;;;;;;15.52;84.5791;95115.97;;;;
2019/08/05 04:04:19;;;;;;;6.95;6.250001;;;;;;;15.52;84.5791;95115.97;;;;
2019/08/05 04:05:20;;;;;;;6.95;6.250001;;;;;;;15.52;84.5791;95115.97;;;;
2019/08/05 04:06:22;;;;;;;6.95;6.250001;;;;;;;15.52;84.5791;95115.97;;;;
2019/08/05 04:07:23;;;;;;;6.95;6.250001;;;;;;;15.52;84.5791;95115.97;;;;
2019/08/05 04:08:24;;;;;;;6.95;6.250001;;;;;;;15.52;84.5791;95115.97;;;;
2019/08/05 04:09:25;;;;;;;6.95;6.250001;;;;;;;15.52;84.5791;95115.97;;;;
2019/08/05 04:10:26;;;;;;;6.95;6.250001;;;;;;;15.52;84.5791;95115.97;;;;
2019/08/05 04:11:28;;;;;;;6.95;6.250001;;;;;;;15.52;84.5791;95115.97;;;;
2019/08/05 04:12:29;;;;;;;6.5;5.9;;;;;;;15.54;84.68164;95113.79;;;;
2019/08/05 04:13:30;;;;;;;6.5;5.9;;;;;;;15.54;84.68164;95113.79;;;;
2019/08/05 04:14:31;;;;;;;6.5;5.9;;;;;;;15.54;84.68164;95113.79;;;;
2019/08/05 04:15:32;;;;;;;6.5;5.9;;;;;;;15.54;84.68164;95113.79;;;;
2019/08/05 04:16:34;;;;;;;6.5;5.9;;;;;;;15.54;84.68164;95113.79;;;;
2019/08/05 04:17:35;;;;;;;6.5;5.9;;;;;;;15.54;84.68164;95113.79;;;;
2019/08/05 04:18:37;;;;;;;6.5;5.9;;;;;;;15.54;84.68164;95113.79;;;;
2019/08/05 04:19:38;;;;;;;6.5;5.9;;;;;;;15.54;84.68164;95113.79;;;;
2019/08/05 04:20:39;;;;;;;6.5;5.9;;;;;;;15.54;84.68164;95113.79;;;;
2019/08/05 04:21:40;;;;;;;6.5;5.9;;;;;;;15.54;84.68164;95113.79;;;;
2019/08/05 04:22:41;;;;;;;6.600001;5.85;;;;;;;15.59;84.71191;95129.17;;;;
2019/08/05 04:23:42;;;;;;;6.600001;5.85;;;;;;;15.59;84.71191;95129.17;;;;
2019/08/05 04:24:43;;;;;;;6.600001;5.85;;;;;;;15.59;84.71191;95129.17;;;;
2019/08/05 04:25:44;;;;;;;6.600001;5.85;;;;;;;15.59;84.71191;95129.17;;;;
2019/08/05 04:26:45;;;;;;;6.600001;5.85;;;;;;;15.59;84.71191;95129.17;;;;
2019/08/05 04:27:46;;;;;;;6.600001;5.85;;;;;;;15.59;84.71191;95129.17;;;;
2019/08/05 04:28:48;;;;;;;6.600001;5.85;;;;;;;15.59;84.71191;95129.17;;;;
2019/08/05 04:29:49;;;;;;;6.600001;5.85;;;;;;;15.59;84.71191;95129.17;;;;
2019/08/05 04:30:50;;;;;;;6.600001;5.85;;;;;;;15.59;84.71191;95129.17;;;;
2019/08/05 04:32:03;;;;;;;6.600001;5.85;;;;;;;15.59;84.71191;95129.17;;;;
2019/08/05 04:33:04;;;;;;;6.600001;5.85;;;;;;;15.59;84.71191;95129.17;;;;
2019/08/05 04:34:06;;;;;;;6.600001;5.85;;;;;;;15.59;84.71191;95129.17;;;;
2019/08/05 04:35:07;;;;;;;6.600001;5.85;;;;;;;15.59;84.71191;95129.17;;;;
2019/08/05 04:36:09;;;;;;;6.600001;5.85;;;;;;;15.59;84.71191;95129.17;;;;
2019/08/05 04:37:10;;;;;;;6.600001;5.85;;;;;;;15.59;84.71191;95129.17;;;;
2019/08/05 04:38:11;;;;;;;6.600001;5.85;;;;;;;15.59;84.71191;95129.17;;;;
2019/08/05 04:39:12;;;;;;;6.600001;5.85;;;;;;;15.59;84.71191;95129.17;;;;
2019/08/05 04:40:13;;;;;;;6.600001;5.85;;;;;;;15.59;84.71191;95129.17;;;;
2019/08/05 04:41:18;;;;;;;6.600001;5.85;;;;;;;15.59;84.71191;95129.17;;;;
2019/08/05 04:42:19;;;;;;;6.600001;5.85;;;;;;;15.59;84.71191;95129.17;;;;
2019/08/05 04:43:20;;;;;;;6.600001;5.85;;;;;;;15.59;84.71191;95129.17;;;;
2019/08/05 04:44:21;;;;;;;6.5;5.900001;;;;;;;15.7;84.57227;95124.55;;;;
2019/08/05 04:45:22;;;;;;;6.5;5.900001;;;;;;;15.7;84.57227;95124.55;;;;
2019/08/05 04:46:24;;;;;;;6.5;5.900001;;;;;;;15.7;84.57227;95124.55;;;;
2019/08/05 04:47:25;;;;;;;6.5;5.900001;;;;;;;15.7;84.57227;95124.55;;;;
2019/08/05 04:48:26;;;;;;;6.5;5.900001;;;;;;;15.7;84.57227;95124.55;;;;
2019/08/05 04:49:27;;;;;;;6.5;5.900001;;;;;;;15.7;84.57227;95124.55;;;;
2019/08/05 04:50:28;;;;;;;6.5;5.900001;;;;;;;15.7;84.57227;95124.55;;;;
2019/08/05 04:51:30;;;;;;;6.5;5.900001;;;;;;;15.7;84.57227;95124.55;;;;
2019/08/05 04:52:31;;;;;;;6.5;5.900001;;;;;;;15.7;84.57227;95124.55;;;;
2019/08/05 04:53:32;;;;;;;6.5;5.900001;;;;;;;15.7;84.57227;95124.55;;;;
2019/08/05 04:54:33;;;;;;;6.5;5.900001;;;;;;;15.7;84.57227;95124.55;;;;
2019/08/05 04:55:34;;;;;;;6.849999;5.95;;;;;;;15.86;84.55957;95124.83;;;;
2019/08/05 04:56:36;;;;;;;6.849999;5.95;;;;;;;15.86;84.55957;95124.83;;;;
2019/08/05 04:57:37;;;;;;;6.849999;5.95;;;;;;;15.86;84.55957;95124.83;;;;
2019/08/05 04:58:38;;;;;;;6.849999;5.95;;;;;;;15.86;84.55957;95124.83;;;;
2019/08/05 04:59:39;;;;;;;6.849999;5.95;;;;;;;15.86;84.55957;95124.83;;;;
2019/08/05 05:00:41;;;;;;;6.849999;5.95;;;;;;;15.86;84.55957;95124.83;;;;
2019/08/05 05:01:49;;;;;;;6.849999;5.95;;;;;;;15.86;84.55957;95124.83;;;;
2019/08/05 05:02:51;;;;;;;6.849999;5.95;;;;;;;15.86;84.55957;95124.83;;;;
2019/08/05 05:03:52;;;;;;;6.849999;5.95;;;;;;;15.86;84.55957;95124.83;;;;
2019/08/05 05:04:53;;;;;;;6.849999;5.95;;;;;;;15.86;84.55957;95124.83;;;;
2019/08/05 05:05:54;;;;;;;6.45;5.75;;;;;;;16.2;84.1377;95132.7;;;;
2019/08/05 05:06:56;;;;;;;6.45;5.75;;;;;;;16.2;84.1377;95132.7;;;;
2019/08/05 05:07:57;;;;;;;6.45;5.75;;;;;;;16.2;84.1377;95132.7;;;;
2019/08/05 05:08:58;;;;;;;6.45;5.75;;;;;;;16.2;84.1377;95132.7;;;;
2019/08/05 05:09:59;;;;;;;6.45;5.75;;;;;;;16.2;84.1377;95132.7;;;;
2019/08/05 05:11:00;;;;;;;6.45;5.75;;;;;;;16.2;84.1377;95132.7;;;;
2019/08/05 05:12:01;;;;;;;6.45;5.75;;;;;;;16.2;84.1377;95132.7;;;;
2019/08/05 05:13:02;;;;;;;6.45;5.75;;;;;;;16.2;84.1377;95132.7;;;;
2019/08/05 05:14:04;;;;;;;6.45;5.75;;;;;;;16.2;84.1377;95132.7;;;;
2019/08/05 05:15:05;;;;;;;6.45;5.75;;;;;;;16.2;84.1377;95132.7;;;;
2019/08/05 05:16:08;;;;;;;5.9;5.3;;;;;;;16.31;83.74805;95132.56;;;;
2019/08/05 05:17:09;;;;;;;5.9;5.3;;;;;;;16.31;83.74805;95132.56;;;;
2019/08/05 05:18:10;;;;;;;5.9;5.3;;;;;;;16.31;83.74805;95132.56;;;;
2019/08/05 05:19:11;;;;;;;5.9;5.3;;;;;;;16.31;83.74805;95132.56;;;;
2019/08/05 05:20:13;;;;;;;5.9;5.3;;;;;;;16.31;83.74805;95132.56;;;;
2019/08/05 05:21:15;;;;;;;5.9;5.3;;;;;;;16.31;83.74805;95132.56;;;;
2019/08/05 05:22:16;;;;;;;5.9;5.3;;;;;;;16.31;83.74805;95132.56;;;;
2019/08/05 05:23:17;;;;;;;5.9;5.3;;;;;;;16.31;83.74805;95132.56;;;;
2019/08/05 05:24:18;;;;;;;5.9;5.3;;;;;;;16.31;83.74805;95132.56;;;;
2019/08/05 05:25:20;;;;;;;5.9;5.3;;;;;;;16.31;83.74805;95132.56;;;;
2019/08/05 05:26:21;;;;;;;5.9;5.3;;;;;;;16.31;83.74805;95132.56;;;;
2019/08/05 05:27:23;;;;;;;6.7;5.900001;;;;;;;16.61;83.50098;95127.48;;;;
2019/08/05 05:28:24;;;;;;;6.7;5.900001;;;;;;;16.61;83.50098;95127.48;;;;
2019/08/05 05:29:25;;;;;;;6.7;5.900001;;;;;;;16.61;83.50098;95127.48;;;;
2019/08/05 05:30:26;;;;;;;6.7;5.900001;;;;;;;16.61;83.50098;95127.48;;;;
2019/08/05 05:31:45;;;;;;;6.7;5.900001;;;;;;;16.61;83.50098;95127.48;;;;
2019/08/05 05:32:47;;;;;;;6.7;5.900001;;;;;;;16.61;83.50098;95127.48;;;;
2019/08/05 05:33:58;;;;;;;6.7;5.900001;;;;;;;16.61;83.50098;95127.48;;;;
2019/08/05 05:35:18;;;;;;;6.7;5.900001;;;;;;;16.61;83.50098;95127.48;;;;
2019/08/05 05:36:58;;;;;;;6.7;5.900001;;;;;;;16.61;83.50098;95127.48;;;;
2019/08/05 05:38:00;;;;;;;5.9;5.349999;;;;;;;17.48;82.17969;95124.13;;;;
2019/08/05 05:39:02;;;;;;;5.9;5.349999;;;;;;;17.48;82.17969;95124.13;;;;
2019/08/05 05:40:07;;;;;;;5.9;5.349999;;;;;;;17.48;82.17969;95124.13;;;;
2019/08/05 05:41:09;;;;;;;5.9;5.349999;;;;;;;17.48;82.17969;95124.13;;;;
2019/08/05 05:42:10;;;;;;;5.9;5.349999;;;;;;;17.48;82.17969;95124.13;;;;